createdAt,value
2022-07-30T00:02:08.502Z,99214.06
2022-07-30T00:04:35.932Z,99215.25
2022-07-30T00:07:04.632Z,99223.28
2022-07-30T00:09:34.494Z,99226.09
2022-07-30T00:12:05.443Z,99222.44
2022-07-30T00:14:32.899Z,99222.00
2022-07-30T00:17:00.115Z,99208.75
2022-07-30T00:19:28.208Z,99211.94
2022-07-30T00:21:56.089Z,99205.91
2022-07-30T00:24:23.737Z,99209.53
2022-07-30T00:26:51.179Z,99212.72
2022-07-30T00:29:18.506Z,99204.28
2022-07-30T00:31:45.628Z,99204.69
2022-07-30T00:34:13.256Z,99208.28
2022-07-30T00:36:40.976Z,99201.50
2022-07-30T00:39:08.530Z,99199.06
2022-07-30T00:41:38.042Z,99209.09
2022-07-30T00:44:05.470Z,99199.84
2022-07-30T00:46:32.670Z,99201.00
2022-07-30T00:49:00.122Z,99212.19
2022-07-30T00:51:27.392Z,99214.16
2022-07-30T00:53:54.945Z,99215.78
2022-07-30T00:56:22.642Z,99214.13
2022-07-30T00:58:49.942Z,99217.69
2022-07-30T01:01:17.281Z,99210.13
2022-07-30T01:03:45.035Z,99202.44
2022-07-30T01:06:14.202Z,99214.47
2022-07-30T01:09:03.640Z,99205.22
2022-07-30T01:11:39.845Z,99222.44
2022-07-30T01:14:08.667Z,99207.59
2022-07-30T01:16:38.155Z,99215.19
2022-07-30T01:19:31.184Z,99212.78
2022-07-30T01:22:11.189Z,99207.13
2022-07-30T01:24:47.148Z,99206.72
2022-07-30T01:27:19.690Z,99213.16
2022-07-30T01:29:49.406Z,99211.91
2022-07-30T01:32:19.740Z,99212.25
2022-07-30T01:34:47.749Z,99211.44
2022-07-30T01:37:17.615Z,99210.63
2022-07-30T01:39:49.888Z,99204.56
2022-07-30T01:42:19.409Z,99217.47
2022-07-30T01:44:50.327Z,99211.91
2022-07-30T01:47:20.270Z,99215.16
2022-07-30T01:49:49.905Z,99202.63
2022-07-30T01:52:18.712Z,99200.91
2022-07-30T01:54:48.729Z,99212.03
2022-07-30T01:57:19.390Z,99212.03
2022-07-30T01:59:50.876Z,99193.22
2022-07-30T02:02:19.673Z,99188.81
2022-07-30T02:04:47.930Z,99198.72
2022-07-30T02:07:15.165Z,99213.59
2022-07-30T02:09:52.048Z,99212.00
2022-07-30T02:12:30.280Z,99206.34
2022-07-30T02:15:35.127Z,99199.50
2022-07-30T02:18:06.929Z,99208.69
2022-07-30T02:20:35.982Z,99176.25
2022-07-30T02:23:10.598Z,99191.88
2022-07-30T02:25:42.357Z,99206.22
2022-07-30T02:28:13.184Z,99191.81
2022-07-30T02:30:47.669Z,99172.94
2022-07-30T02:33:17.415Z,99200.25
2022-07-30T02:35:45.591Z,99196.66
2022-07-30T02:38:16.482Z,99199.81
2022-07-30T02:40:45.250Z,99201.44
2022-07-30T02:43:16.927Z,99196.88
2022-07-30T02:45:48.495Z,99197.72
2022-07-30T02:48:34.545Z,99182.88
2022-07-30T02:51:04.256Z,99190.00
2022-07-30T02:53:33.310Z,99196.84
2022-07-30T02:56:02.712Z,99189.19
2022-07-30T02:58:31.059Z,99197.28
2022-07-30T03:01:00.349Z,99187.66
2022-07-30T03:03:32.068Z,99172.75
2022-07-30T03:06:00.819Z,99180.09
2022-07-30T03:08:29.219Z,99184.78
2022-07-30T03:10:57.658Z,99187.28
2022-07-30T03:13:25.759Z,99194.78
2022-07-30T03:15:54.144Z,99192.38
2022-07-30T03:18:23.591Z,99196.41
2022-07-30T03:20:55.310Z,99203.16
2022-07-30T03:23:23.903Z,99193.94
2022-07-30T03:25:58.214Z,99187.50
2022-07-30T03:28:26.763Z,99189.97
2022-07-30T03:30:54.772Z,99200.53
2022-07-30T03:33:23.665Z,99203.25
2022-07-30T03:36:08.629Z,99203.66
2022-07-30T03:38:38.937Z,99197.59
2022-07-30T03:41:08.033Z,99194.38
2022-07-30T03:43:35.962Z,99207.56
2022-07-30T03:46:05.938Z,99210.00
2022-07-30T03:48:36.282Z,99195.66
2022-07-30T03:51:05.194Z,99211.78
2022-07-30T03:53:32.927Z,99207.72
2022-07-30T03:56:19.504Z,99211.06
2022-07-30T03:59:06.913Z,99215.94
2022-07-30T04:01:37.402Z,99204.81
2022-07-30T04:04:21.462Z,99207.97
2022-07-30T04:06:49.950Z,99212.38
2022-07-30T04:09:19.495Z,99216.81
2022-07-30T04:11:48.275Z,99222.50
2022-07-30T04:14:17.814Z,99228.59
2022-07-30T04:17:04.070Z,99227.47
2022-07-30T04:19:48.346Z,99223.09
2022-07-30T04:22:21.415Z,99225.56
2022-07-30T04:24:49.791Z,99170.22
2022-07-30T04:27:18.204Z,99219.72
2022-07-30T04:29:45.563Z,99214.56
2022-07-30T04:32:13.347Z,99202.16
2022-07-30T04:34:59.795Z,99202.16
2022-07-30T04:37:53.066Z,99202.59
2022-07-30T04:40:20.906Z,99201.06
2022-07-30T04:42:48.268Z,99211.53
2022-07-30T04:45:15.741Z,99214.81
2022-07-30T04:47:55.343Z,99211.28
2022-07-30T04:50:42.378Z,99157.09
2022-07-30T04:53:12.661Z,99205.72
2022-07-30T04:55:48.927Z,99208.13
2022-07-30T04:58:20.614Z,99214.16
2022-07-30T05:00:52.220Z,99188.50
2022-07-30T05:03:26.098Z,99205.38
2022-07-30T05:05:57.632Z,99195.34
2022-07-30T05:08:28.276Z,99207.41
2022-07-30T05:10:58.624Z,99219.84
2022-07-30T05:13:34.581Z,99212.19
2022-07-30T05:16:07.518Z,99204.19
2022-07-30T05:18:36.695Z,99214.59
2022-07-30T05:21:04.882Z,99212.19
2022-07-30T05:23:37.700Z,99219.38
2022-07-30T05:26:13.851Z,99229.00
2022-07-30T05:28:48.474Z,99232.22
2022-07-30T05:31:24.605Z,99225.72
2022-07-30T05:34:02.939Z,99226.91
2022-07-30T05:36:38.410Z,99230.06
2022-07-30T05:39:06.065Z,99237.63
2022-07-30T05:41:55.121Z,99238.41
2022-07-30T05:44:26.950Z,99244.75
2022-07-30T05:46:55.085Z,99247.03
2022-07-30T05:49:24.046Z,99246.59
2022-07-30T05:51:53.055Z,99244.94
2022-07-30T05:54:20.522Z,99239.66
2022-07-30T05:57:10.886Z,99242.00
2022-07-30T05:59:39.262Z,99241.06
2022-07-30T06:02:10.730Z,99239.66
2022-07-30T06:04:56.404Z,99238.75
2022-07-30T06:07:24.693Z,99235.00
2022-07-30T06:09:54.135Z,99232.53
2022-07-30T06:12:21.519Z,99226.81
2022-07-30T06:14:49.306Z,99229.84
2022-07-30T06:17:23.703Z,99212.94
2022-07-30T06:20:12.970Z,99236.88
2022-07-30T06:23:03.191Z,99222.16
2022-07-30T06:25:42.779Z,99216.94
2022-07-30T06:28:27.738Z,99208.66
2022-07-30T06:30:58.080Z,99216.38
2022-07-30T06:33:28.264Z,99208.63
2022-07-30T06:35:55.674Z,99214.91
2022-07-30T06:38:26.846Z,99215.56
2022-07-30T06:41:04.418Z,99211.88
2022-07-30T06:43:47.716Z,99218.94
2022-07-30T06:46:33.524Z,99197.78
2022-07-30T06:49:00.965Z,99209.59
2022-07-30T06:51:28.253Z,99213.84
2022-07-30T06:53:55.817Z,99209.09
2022-07-30T06:56:41.612Z,99199.34
2022-07-30T06:59:08.933Z,99198.69
2022-07-30T07:01:54.685Z,99207.47
2022-07-30T07:04:23.671Z,99202.78
2022-07-30T07:06:50.921Z,99203.09
2022-07-30T07:09:27.899Z,99203.22
2022-07-30T07:12:24.483Z,99192.72
2022-07-30T07:14:51.712Z,99199.22
2022-07-30T07:17:20.160Z,99195.03
2022-07-30T07:20:06.015Z,99188.69
2022-07-30T07:22:40.702Z,99188.63
2022-07-30T07:25:09.708Z,99190.69
2022-07-30T07:27:38.448Z,99187.16
2022-07-30T07:30:07.274Z,99190.97
2022-07-30T07:32:37.455Z,99183.06
2022-07-30T07:35:06.618Z,99191.28
2022-07-30T07:37:36.359Z,99193.38
2022-07-30T07:40:06.135Z,99185.69
2022-07-30T07:42:38.026Z,99180.38
2022-07-30T07:45:07.293Z,99177.63
2022-07-30T07:47:49.223Z,99182.75
2022-07-30T07:50:36.114Z,99185.56
2022-07-30T07:53:04.146Z,99175.66
2022-07-30T07:55:32.272Z,99182.56
2022-07-30T07:58:01.014Z,99181.31
2022-07-30T08:00:29.587Z,99186.94
2022-07-30T08:02:58.676Z,99184.31
2022-07-30T08:06:01.765Z,99179.25
2022-07-30T08:08:25.063Z,99182.91
2022-07-30T08:11:12.669Z,99186.09
2022-07-30T08:14:15.643Z,99184.41
2022-07-30T08:17:01.616Z,99179.34
2022-07-30T08:19:47.619Z,99180.16
2022-07-30T08:22:21.537Z,99169.59
2022-07-30T08:24:48.749Z,99171.56
2022-07-30T08:27:16.039Z,99159.53
2022-07-30T08:29:43.449Z,99157.25
2022-07-30T08:32:10.600Z,99157.16
2022-07-30T08:34:40.515Z,99158.25
2022-07-30T08:37:07.849Z,99156.91
2022-07-30T08:39:36.391Z,99155.00
2022-07-30T08:42:05.072Z,99153.28
2022-07-30T08:44:35.653Z,99146.56
2022-07-30T08:47:07.257Z,99145.13
2022-07-30T08:50:07.003Z,99140.69
2022-07-30T08:52:37.914Z,99143.28
2022-07-30T08:55:11.820Z,99144.63
2022-07-30T08:57:40.851Z,99141.31
2022-07-30T09:00:09.365Z,99140.16
2022-07-30T09:02:36.646Z,99148.56
2022-07-30T09:05:07.015Z,99141.94
2022-07-30T09:07:36.168Z,99144.31
2022-07-30T09:10:07.318Z,99143.88
2022-07-30T09:12:43.068Z,99145.06
2022-07-30T09:15:15.515Z,99142.44
2022-07-30T09:17:56.645Z,99131.41
2022-07-30T09:20:31.468Z,99139.28
2022-07-30T09:23:02.253Z,99134.16
2022-07-30T09:25:50.258Z,99126.63
2022-07-30T09:28:36.351Z,99130.06
2022-07-30T09:31:16.917Z,99136.31
2022-07-30T09:34:02.743Z,99123.13
2022-07-30T09:36:48.927Z,99129.38
2022-07-30T09:39:35.877Z,99124.66
2022-07-30T09:42:27.909Z,99102.19
2022-07-30T09:45:09.834Z,99124.16
2022-07-30T09:47:42.829Z,99124.19
2022-07-30T09:50:17.919Z,99117.75
2022-07-30T09:53:09.626Z,99104.19
2022-07-30T09:55:42.306Z,99101.94
2022-07-30T09:58:26.384Z,99099.94
2022-07-30T10:00:59.668Z,99104.31
2022-07-30T10:03:44.266Z,99097.22
2022-07-30T10:06:38.169Z,99096.44
2022-07-30T10:09:37.433Z,99105.03
2022-07-30T10:12:11.274Z,99102.19
2022-07-30T10:14:47.292Z,99104.31
2022-07-30T10:17:18.335Z,99093.38
2022-07-30T10:20:14.929Z,99100.88
2022-07-30T10:23:07.780Z,99097.25
2022-07-30T10:25:49.283Z,99083.75
2022-07-30T10:28:41.021Z,99079.69
2022-07-30T10:31:47.952Z,99084.94
2022-07-30T10:33:57.186Z,99078.31
2022-07-30T10:36:26.767Z,99082.91
2022-07-30T10:38:55.766Z,99079.41
2022-07-30T10:41:44.264Z,99064.56
2022-07-30T10:44:31.318Z,99073.25
2022-07-30T10:47:09.207Z,99063.66
2022-07-30T10:49:41.037Z,99073.94
2022-07-30T10:52:12.172Z,99068.09
2022-07-30T10:54:42.575Z,99057.00
2022-07-30T10:57:26.608Z,99053.84
2022-07-30T11:00:00.695Z,99062.25
2022-07-30T11:02:35.503Z,99046.72
2022-07-30T11:05:38.219Z,99044.03
2022-07-30T11:08:32.614Z,99054.34
2022-07-30T11:12:01.541Z,99053.41
2022-07-30T11:14:20.538Z,99045.66
2022-07-30T11:16:51.439Z,99054.03
2022-07-30T11:19:56.987Z,99048.03
2022-07-30T11:22:28.807Z,99028.84
2022-07-30T11:24:57.987Z,99053.09
2022-07-30T11:27:45.777Z,99041.03
2022-07-30T11:30:17.008Z,99036.94
2022-07-30T11:32:48.570Z,99036.94
2022-07-30T11:35:19.201Z,99035.50
2022-07-30T11:38:03.370Z,99027.09
2022-07-30T11:40:40.424Z,99021.09
2022-07-30T11:43:36.975Z,99017.72
2022-07-30T11:46:36.401Z,99031.63
2022-07-30T11:49:09.095Z,99009.25
2022-07-30T11:51:44.477Z,99010.03
2022-07-30T11:54:12.931Z,99006.09
2022-07-30T11:56:53.503Z,99010.66
2022-07-30T11:59:21.295Z,99002.31
2022-07-30T12:02:01.987Z,99005.28
2022-07-30T12:04:30.114Z,98996.88
2022-07-30T12:06:57.986Z,98999.06
2022-07-30T12:09:32.230Z,98999.53
2022-07-30T12:12:02.388Z,98994.25
2022-07-30T12:14:39.491Z,98980.69
2022-07-30T12:17:14.993Z,98978.94
2022-07-30T12:19:49.642Z,98987.66
2022-07-30T12:22:16.939Z,98970.09
2022-07-30T12:24:44.329Z,98976.81
2022-07-30T12:27:11.679Z,98970.50
2022-07-30T12:29:39.158Z,98972.56
2022-07-30T12:32:06.904Z,98956.84
2022-07-30T12:34:34.532Z,98942.88
2022-07-30T12:37:10.487Z,98934.00
2022-07-30T12:39:38.544Z,98944.63
2022-07-30T12:42:17.587Z,98940.97
2022-07-30T12:44:45.146Z,98927.81
2022-07-30T12:47:20.527Z,98923.69
2022-07-30T12:49:50.281Z,98916.44
2022-07-30T12:52:33.770Z,98906.22
2022-07-30T12:55:06.713Z,98905.44
2022-07-30T12:57:56.721Z,98907.66
2022-07-30T13:00:27.031Z,98891.75
2022-07-30T13:02:55.022Z,98885.22
2022-07-30T13:05:49.042Z,98880.59
2022-07-30T13:08:16.875Z,98875.59
2022-07-30T13:11:00.935Z,98868.31
2022-07-30T13:13:29.555Z,98861.31
2022-07-30T13:16:02.524Z,98864.06
2022-07-30T13:18:43.412Z,98868.59
2022-07-30T13:21:11.598Z,98829.59
2022-07-30T13:23:40.946Z,98855.00
2022-07-30T13:26:09.969Z,98835.28
2022-07-30T13:28:37.423Z,98842.75
2022-07-30T13:31:05.249Z,98834.59
2022-07-30T13:33:32.560Z,98836.28
2022-07-30T13:36:00.406Z,98831.47
2022-07-30T13:38:28.506Z,98823.19
2022-07-30T13:40:59.162Z,98827.94
2022-07-30T13:43:29.860Z,98811.69
2022-07-30T13:46:03.143Z,98811.56
2022-07-30T13:48:31.048Z,98810.19
2022-07-30T13:51:00.277Z,98800.34
2022-07-30T13:53:28.609Z,98809.41
2022-07-30T13:55:56.627Z,98815.16
2022-07-30T13:58:24.049Z,98800.25
2022-07-30T14:00:51.684Z,98805.56
2022-07-30T14:03:19.031Z,98788.72
2022-07-30T14:05:48.794Z,98798.56
2022-07-30T14:08:16.167Z,98788.31
2022-07-30T14:10:43.867Z,98790.69
2022-07-30T14:13:16.005Z,98784.47
2022-07-30T14:15:48.680Z,98780.25
2022-07-30T14:18:16.061Z,98793.84
2022-07-30T14:20:46.860Z,98802.91
2022-07-30T14:23:16.936Z,98773.13
2022-07-30T14:25:47.322Z,98773.78
2022-07-30T14:28:14.813Z,98776.56
2022-07-30T14:30:42.768Z,98774.41
2022-07-30T14:33:11.578Z,98770.47
2022-07-30T14:35:39.072Z,98765.66
2022-07-30T14:38:06.400Z,98757.56
2022-07-30T14:40:33.460Z,98768.47
2022-07-30T14:43:00.878Z,98770.16
2022-07-30T14:45:28.661Z,98761.91
2022-07-30T14:47:56.669Z,98756.59
2022-07-30T14:50:24.384Z,98758.44
2022-07-30T14:52:52.112Z,98757.94
2022-07-30T14:55:19.571Z,98772.69
2022-07-30T14:57:47.426Z,98768.41
2022-07-30T15:00:15.022Z,98763.88
2022-07-30T15:02:42.474Z,98751.25
2022-07-30T15:05:10.010Z,98753.81
2022-07-30T15:07:37.701Z,98744.41
2022-07-30T15:10:07.633Z,98756.09
2022-07-30T15:12:35.581Z,98743.47
2022-07-30T15:15:06.197Z,98743.56
2022-07-30T15:17:35.780Z,98748.00
2022-07-30T15:20:09.876Z,98746.72
2022-07-30T15:22:38.526Z,98739.66
2022-07-30T15:25:06.728Z,98731.56
2022-07-30T15:27:34.549Z,98740.53
2022-07-30T15:30:02.039Z,98741.34
2022-07-30T15:32:31.099Z,98738.19
2022-07-30T15:34:58.947Z,98744.19
2022-07-30T15:37:26.832Z,98732.16
2022-07-30T15:39:54.086Z,98735.81
2022-07-30T15:42:21.419Z,98740.81
2022-07-30T15:44:49.255Z,98734.91
2022-07-30T15:47:16.704Z,98737.50
2022-07-30T15:49:44.711Z,98740.25
2022-07-30T15:52:12.197Z,98740.84
2022-07-30T15:54:39.703Z,98741.97
2022-07-30T15:57:07.075Z,98755.16
2022-07-30T15:59:34.409Z,98747.81
2022-07-30T16:02:01.963Z,98743.91
2022-07-30T16:04:31.210Z,98746.28
2022-07-30T16:07:04.344Z,98742.91
2022-07-30T16:09:31.867Z,98748.56
2022-07-30T16:11:59.485Z,98743.03
2022-07-30T16:14:27.388Z,98750.53
2022-07-30T16:16:55.297Z,98748.00
2022-07-30T16:19:22.457Z,98742.53
2022-07-30T16:21:49.780Z,98749.50
2022-07-30T16:24:17.619Z,98742.34
2022-07-30T16:26:44.813Z,98726.56
2022-07-30T16:29:14.057Z,98728.59
2022-07-30T16:31:42.173Z,98734.44
2022-07-30T16:34:09.474Z,98734.13
2022-07-30T16:36:37.023Z,98738.03
2022-07-30T16:39:05.409Z,98745.69
2022-07-30T16:41:32.713Z,98750.88
2022-07-30T16:44:00.021Z,98754.03
2022-07-30T16:46:27.600Z,98752.63
2022-07-30T16:48:55.064Z,98764.78
2022-07-30T16:51:22.375Z,98763.59
2022-07-30T16:53:52.208Z,98753.88
2022-07-30T16:56:20.437Z,98764.00
2022-07-30T16:58:57.635Z,98777.34
2022-07-30T17:01:24.958Z,98783.06
2022-07-30T17:04:02.114Z,98782.13
2022-07-30T17:06:29.627Z,98783.03
2022-07-30T17:08:56.868Z,98793.94
2022-07-30T17:11:46.394Z,98800.59
2022-07-30T17:14:12.348Z,98771.91
2022-07-30T17:16:40.405Z,98794.81
2022-07-30T17:19:09.528Z,98787.69
2022-07-30T17:21:38.953Z,98795.69
2022-07-30T17:24:11.872Z,98807.19
2022-07-30T17:26:42.931Z,98795.81
2022-07-30T17:29:14.059Z,98811.53
2022-07-30T17:31:44.273Z,98812.59
2022-07-30T17:34:14.241Z,98802.59
2022-07-30T17:36:51.842Z,98806.16
2022-07-30T17:40:26.657Z,98775.53
2022-07-30T17:42:12.380Z,98803.69
2022-07-30T17:44:41.963Z,98797.31
2022-07-30T17:47:15.166Z,98808.94
2022-07-30T17:49:44.361Z,98809.84
2022-07-30T17:52:11.795Z,98799.84
2022-07-30T17:54:39.090Z,98814.28
2022-07-30T17:57:06.441Z,98827.22
2022-07-30T17:59:33.631Z,98822.28
2022-07-30T18:02:01.240Z,98822.53
2022-07-30T18:04:28.743Z,98830.81
2022-07-30T18:06:55.827Z,98834.13
2022-07-30T18:09:24.257Z,98839.00
2022-07-30T18:11:51.983Z,98841.25
2022-07-30T18:14:19.370Z,98847.84
2022-07-30T18:16:46.672Z,98834.50
2022-07-30T18:19:27.038Z,98850.25
2022-07-30T18:21:54.780Z,98856.84
2022-07-30T18:24:24.565Z,98848.00
2022-07-30T18:26:52.634Z,98843.97
2022-07-30T18:29:21.116Z,98862.22
2022-07-30T18:31:48.670Z,98852.34
2022-07-30T18:34:15.949Z,98859.94
2022-07-30T18:36:43.187Z,98864.81
2022-07-30T18:39:10.422Z,98858.03
2022-07-30T18:41:37.510Z,98860.63
2022-07-30T18:44:05.016Z,98857.78
2022-07-30T18:46:32.179Z,98864.69
2022-07-30T18:49:15.073Z,98855.16
2022-07-30T18:51:47.850Z,98873.19
2022-07-30T18:54:16.060Z,98870.78
2022-07-30T18:56:43.269Z,98879.06
2022-07-30T18:59:10.749Z,98880.75
2022-07-30T19:01:39.361Z,98874.84
2022-07-30T19:04:06.919Z,98877.59
2022-07-30T19:06:38.046Z,98889.22
2022-07-30T19:09:05.632Z,98886.31
2022-07-30T19:11:42.980Z,98885.50
2022-07-30T19:14:11.858Z,98887.19
2022-07-30T19:16:39.288Z,98880.84
2022-07-30T19:19:06.464Z,98886.16
2022-07-30T19:21:34.343Z,98891.44
2022-07-30T19:24:01.937Z,98879.88
2022-07-30T19:26:29.032Z,98878.03
2022-07-30T19:28:56.312Z,98880.19
2022-07-30T19:31:23.619Z,98881.19
2022-07-30T19:33:50.945Z,98881.13
2022-07-30T19:36:21.234Z,98880.63
2022-07-30T19:38:50.105Z,98883.63
2022-07-30T19:41:17.250Z,98875.78
2022-07-30T19:43:57.776Z,98882.25
2022-07-30T19:46:26.140Z,98885.41
2022-07-30T19:48:53.362Z,98873.75
2022-07-30T19:51:25.392Z,98870.47
2022-07-30T19:54:08.331Z,98867.22
2022-07-30T19:56:37.865Z,98873.94
2022-07-30T19:59:14.573Z,98872.38
2022-07-30T20:01:43.558Z,98881.81
2022-07-30T20:04:11.356Z,98888.38
2022-07-30T20:06:46.172Z,98878.56
2022-07-30T20:09:15.087Z,98878.03
2022-07-30T20:11:46.256Z,98886.06
2022-07-30T20:17:02.122Z,98872.50
2022-07-30T20:19:36.003Z,98873.59
2022-07-30T20:22:04.436Z,98880.69
2022-07-30T20:24:31.653Z,98872.00
2022-07-30T20:27:01.796Z,98882.78
2022-07-30T20:29:49.117Z,98871.63
2022-07-30T20:32:17.561Z,98879.97
2022-07-30T20:34:44.750Z,98890.56
2022-07-30T20:37:16.581Z,98876.88
2022-07-30T20:39:50.487Z,98881.34
2022-07-30T20:42:18.579Z,98864.41
2022-07-30T20:44:50.653Z,98882.41
2022-07-30T20:47:34.298Z,98881.34
2022-07-30T20:50:10.745Z,98898.47
2022-07-30T20:52:46.531Z,98897.06
2022-07-30T20:55:16.984Z,98920.50
2022-07-30T20:57:59.290Z,98951.50
2022-07-30T21:00:36.734Z,98965.63
2022-07-30T21:03:05.665Z,98973.84
2022-07-30T21:05:32.948Z,98958.25
2022-07-30T21:08:00.711Z,98938.88
2022-07-30T21:10:28.312Z,98954.34
2022-07-30T21:12:58.502Z,98957.22
2022-07-30T21:15:36.193Z,98979.44
2022-07-30T21:18:12.836Z,98964.41
2022-07-30T21:20:40.081Z,98961.44
2022-07-30T21:23:11.525Z,98958.88
2022-07-30T21:26:01.509Z,98954.81
2022-07-30T21:28:29.739Z,98951.13
2022-07-30T21:31:02.611Z,98951.84
2022-07-30T21:33:31.430Z,98969.00
2022-07-30T21:35:59.448Z,98966.97
2022-07-30T21:38:27.747Z,98971.16
2022-07-30T21:40:56.041Z,98974.28
2022-07-30T21:43:30.124Z,98987.13
2022-07-30T21:45:59.031Z,98993.69
2022-07-30T21:48:26.850Z,99028.50
2022-07-30T21:50:54.872Z,99019.78
2022-07-30T21:53:29.892Z,99028.00
2022-07-30T21:56:10.901Z,99019.72
2022-07-30T21:58:39.364Z,99029.41
2022-07-30T22:01:16.763Z,99025.66
2022-07-30T22:04:01.711Z,99028.19
2022-07-30T22:06:41.701Z,99047.16
2022-07-30T22:09:19.459Z,99044.78
2022-07-30T22:11:54.725Z,99026.97
2022-07-30T22:14:23.263Z,99026.34
2022-07-30T22:16:53.075Z,99046.88
2022-07-30T22:19:22.019Z,99047.44
2022-07-30T22:21:50.975Z,99030.63
2022-07-30T22:24:29.618Z,99013.44
2022-07-30T22:27:01.030Z,99047.50
2022-07-30T22:29:34.211Z,99034.63
2022-07-30T22:32:04.058Z,99037.78
2022-07-30T22:34:32.733Z,99047.41
2022-07-30T22:37:00.010Z,99032.19
2022-07-30T22:39:31.836Z,99048.19
2022-07-30T22:42:16.229Z,99041.34
2022-07-30T22:47:53.918Z,99032.09
2022-07-30T22:50:23.829Z,99040.63
2022-07-30T22:53:01.847Z,99042.66
2022-07-30T22:55:41.478Z,99038.81
2022-07-30T22:58:08.675Z,99040.41
2022-07-30T23:00:37.098Z,99038.94
2022-07-30T23:03:07.813Z,99036.50
2022-07-30T23:05:35.688Z,99040.06
2022-07-30T23:08:03.907Z,99040.91
2022-07-30T23:10:31.774Z,99028.63
2022-07-30T23:12:16.036Z,98884.13
2022-07-30T23:12:34.641Z,99042.13
2022-07-30T23:12:59.317Z,99037.78
2022-07-30T23:15:26.416Z,99043.13
2022-07-30T23:17:54.123Z,99037.53
2022-07-30T23:20:22.077Z,99030.22
2022-07-30T23:22:50.641Z,99031.09
2022-07-30T23:25:18.453Z,99026.28
2022-07-30T23:27:46.776Z,99019.94
2022-07-30T23:30:14.608Z,99023.13
2022-07-30T23:32:41.911Z,99021.53
2022-07-30T23:35:09.754Z,99010.75
2022-07-30T23:37:48.416Z,99011.19
2022-07-30T23:40:19.850Z,99011.66
2022-07-30T23:42:51.127Z,99004.91
2022-07-30T23:45:18.708Z,99023.47
2022-07-30T23:48:00.738Z,99017.47
2022-07-30T23:50:32.657Z,99009.84
2022-07-30T23:53:01.019Z,99008.22
2022-07-30T23:55:29.893Z,98999.88
2022-07-30T23:57:58.193Z,99004.72
